sensor_id;sensor_type;location;lat;lon;timestamp;pressure;altitude;pressure_sealevel;temperature;humidity
38038;BME280;23843;51.320;12.340;2023-12-07T00:00:51;100425.28;;;4.28;79.32
38038;BME280;23843;51.320;12.340;2023-12-07T00:03:17;100425.94;;;4.30;79.18
38038;BME280;23843;51.320;12.340;2023-12-07T00:05:42;100423.19;;;4.30;79.84
38038;BME280;23843;51.320;12.340;2023-12-07T00:08:09;100424.03;;;4.31;79.14
38038;BME280;23843;51.320;12.340;2023-12-07T00:10:34;100432.28;;;4.31;79.80
38038;BME280;23843;51.320;12.340;2023-12-07T00:13:00;100431.22;;;4.32;79.26
38038;BME280;23843;51.320;12.340;2023-12-07T00:15:27;100437.59;;;4.32;79.22
38038;BME280;23843;51.320;12.340;2023-12-07T00:17:53;100433.78;;;4.34;79.66
38038;BME280;23843;51.320;12.340;2023-12-07T00:20:18;100445.47;;;4.36;79.67
38038;BME280;23843;51.320;12.340;2023-12-07T00:22:44;100441.19;;;4.33;79.42
38038;BME280;23843;51.320;12.340;2023-12-07T00:25:09;100447.34;;;4.35;79.46
38038;BME280;23843;51.320;12.340;2023-12-07T00:27:35;100439.28;;;4.34;79.39
38038;BME280;23843;51.320;12.340;2023-12-07T00:30:00;100439.09;;;4.35;79.74
38038;BME280;23843;51.320;12.340;2023-12-07T00:32:28;100449.25;;;4.35;79.40
38038;BME280;23843;51.320;12.340;2023-12-07T00:34:53;100444.59;;;4.35;79.19
38038;BME280;23843;51.320;12.340;2023-12-07T00:37:19;100443.75;;;4.35;79.31
38038;BME280;23843;51.320;12.340;2023-12-07T00:39:45;100444.78;;;4.34;79.24
38038;BME280;23843;51.320;12.340;2023-12-07T00:42:10;100439.28;;;4.34;79.10
38038;BME280;23843;51.320;12.340;2023-12-07T00:44:39;100441.00;;;4.35;79.70
38038;BME280;23843;51.320;12.340;2023-12-07T00:47:05;100448.22;;;4.36;79.19
38038;BME280;23843;51.320;12.340;2023-12-07T00:49:32;100451.81;;;4.36;79.40
38038;BME280;23843;51.320;12.340;2023-12-07T00:51:57;100449.91;;;4.37;79.44
38038;BME280;23843;51.320;12.340;2023-12-07T00:54:23;100453.31;;;4.39;79.29
38038;BME280;23843;51.320;12.340;2023-12-07T00:56:49;100451.63;;;4.38;79.14
38038;BME280;23843;51.320;12.340;2023-12-07T00:59:24;100457.13;;;4.38;78.96
38038;BME280;23843;51.320;12.340;2023-12-07T01:01:50;100452.50;;;4.38;79.49
38038;BME280;23843;51.320;12.340;2023-12-07T01:04:15;100458.81;;;4.39;79.25
38038;BME280;23843;51.320;12.340;2023-12-07T01:06:42;100467.06;;;4.39;79.42
38038;BME280;23843;51.320;12.340;2023-12-07T01:09:08;100470.47;;;4.41;79.33
38038;BME280;23843;51.320;12.340;2023-12-07T01:11:33;100470.47;;;4.41;79.53
38038;BME280;23843;51.320;12.340;2023-12-07T01:13:59;100472.38;;;4.40;79.34
38038;BME280;23843;51.320;12.340;2023-12-07T01:16:24;100475.31;;;4.39;79.51
38038;BME280;23843;51.320;12.340;2023-12-07T01:18:50;100471.75;;;4.38;79.47
38038;BME280;23843;51.320;12.340;2023-12-07T01:21:16;100477.03;;;4.40;79.42
38038;BME280;23843;51.320;12.340;2023-12-07T01:23:43;100472.38;;;4.40;79.32
38038;BME280;23843;51.320;12.340;2023-12-07T01:26:09;100485.09;;;4.41;79.51
38038;BME280;23843;51.320;12.340;2023-12-07T01:28:34;100488.69;;;4.42;79.09
38038;BME280;23843;51.320;12.340;2023-12-07T01:31:00;100495.03;;;4.42;78.93
38038;BME280;23843;51.320;12.340;2023-12-07T01:33:26;100493.16;;;4.43;79.13
38038;BME280;23843;51.320;12.340;2023-12-07T01:35:51;100496.75;;;4.43;79.41
38038;BME280;23843;51.320;12.340;2023-12-07T01:38:17;100496.56;;;4.45;79.37
38038;BME280;23843;51.320;12.340;2023-12-07T01:40:44;100492.75;;;4.46;79.32
38038;BME280;23843;51.320;12.340;2023-12-07T01:43:10;100498.25;;;4.46;79.46
38038;BME280;23843;51.320;12.340;2023-12-07T01:45:36;100498.06;;;4.47;79.35
38038;BME280;23843;51.320;12.340;2023-12-07T01:48:02;100510.97;;;4.47;79.44
38038;BME280;23843;51.320;12.340;2023-12-07T01:50:29;100512.00;;;4.46;79.18
38038;BME280;23843;51.320;12.340;2023-12-07T01:53:01;100510.31;;;4.45;79.02
38038;BME280;23843;51.320;12.340;2023-12-07T21:44:57;100478.72;;;-0.11;81.85
38038;BME280;23843;51.320;12.340;2023-12-07T21:47:24;100479.97;;;0.03;83.20
38038;BME280;23843;51.320;12.340;2023-12-07T21:49:50;100474.41;;;0.20;83.71
38038;BME280;23843;51.320;12.340;2023-12-07T21:52:16;100473.44;;;0.37;84.46
38038;BME280;23843;51.320;12.340;2023-12-07T21:54:41;100478.78;;;0.55;84.58
38038;BME280;23843;51.320;12.340;2023-12-07T21:57:07;100488.34;;;0.67;84.95
38038;BME280;23843;51.320;12.340;2023-12-07T21:59:32;100489.41;;;0.83;84.74
38038;BME280;23843;51.320;12.340;2023-12-07T22:01:59;100491.81;;;0.94;84.82
38038;BME280;23843;51.320;12.340;2023-12-07T22:04:25;100478.81;;;1.04;84.98
38038;BME280;23843;51.320;12.340;2023-12-07T22:06:50;100476.22;;;1.10;84.45
38038;BME280;23843;51.320;12.340;2023-12-07T22:09:16;100481.88;;;1.17;84.51
38038;BME280;23843;51.320;12.340;2023-12-07T22:11:43;100483.09;;;1.23;84.50
38038;BME280;23843;51.320;12.340;2023-12-07T22:14:08;100479.66;;;1.29;84.72
38038;BME280;23843;51.320;12.340;2023-12-07T22:16:39;100483.75;;;1.33;84.43
38038;BME280;23843;51.320;12.340;2023-12-07T22:19:06;100478.78;;;1.36;84.05
38038;BME280;23843;51.320;12.340;2023-12-07T22:21:32;100479.28;;;1.40;83.99
38038;BME280;23843;51.320;12.340;2023-12-07T22:23:58;100468.84;;;1.43;84.25
38038;BME280;23843;51.320;12.340;2023-12-07T22:26:24;100471.44;;;1.45;84.05
38038;BME280;23843;51.320;12.340;2023-12-07T22:28:49;100467.66;;;1.46;83.92
38038;BME280;23843;51.320;12.340;2023-12-07T22:31:15;100460.13;;;1.48;84.54
38038;BME280;23843;51.320;12.340;2023-12-07T22:33:41;100460.97;;;1.48;83.53
38038;BME280;23843;51.320;12.340;2023-12-07T22:36:14;100460.97;;;1.48;83.87
38038;BME280;23843;51.320;12.340;2023-12-07T22:38:40;100458.06;;;1.50;83.97
38038;BME280;23843;51.320;12.340;2023-12-07T22:41:11;100457.22;;;1.49;84.10
38038;BME280;23843;51.320;12.340;2023-12-07T22:43:37;100450.38;;;1.45;83.68
38038;BME280;23843;51.320;12.340;2023-12-07T22:46:04;100446.78;;;1.45;83.79
38038;BME280;23843;51.320;12.340;2023-12-07T22:48:30;100440.47;;;1.44;83.91
38038;BME280;23843;51.320;12.340;2023-12-07T22:50:55;100437.34;;;1.47;84.32
38038;BME280;23843;51.320;12.340;2023-12-07T22:53:22;100435.31;;;1.49;83.99
38038;BME280;23843;51.320;12.340;2023-12-07T22:55:48;100430.88;;;1.48;83.92
38038;BME280;23843;51.320;12.340;2023-12-07T22:58:13;100428.13;;;1.48;83.56
38038;BME280;23843;51.320;12.340;2023-12-07T23:00:39;100416.50;;;1.46;83.48
38038;BME280;23843;51.320;12.340;2023-12-07T23:03:04;100418.41;;;1.46;83.83
38038;BME280;23843;51.320;12.340;2023-12-07T23:05:30;100410.69;;;1.41;83.68
38038;BME280;23843;51.320;12.340;2023-12-07T23:07:55;100408.13;;;1.40;83.91
38038;BME280;23843;51.320;12.340;2023-12-07T23:10:22;100403.03;;;1.37;84.03
38038;BME280;23843;51.320;12.340;2023-12-07T23:12:48;100406.78;;;1.36;83.10
38038;BME280;23843;51.320;12.340;2023-12-07T23:15:13;100402.50;;;1.33;83.95
38038;BME280;23843;51.320;12.340;2023-12-07T23:17:39;100398.91;;;1.33;83.57
38038;BME280;23843;51.320;12.340;2023-12-07T23:20:05;100393.63;;;1.31;83.77
38038;BME280;23843;51.320;12.340;2023-12-07T23:22:31;100388.16;;;1.31;83.42
38038;BME280;23843;51.320;12.340;2023-12-07T23:24:57;100380.13;;;1.30;83.49
38038;BME280;23843;51.320;12.340;2023-12-07T23:27:24;100371.22;;;1.28;83.48
38038;BME280;23843;51.320;12.340;2023-12-07T23:29:50;100377.72;;;1.27;83.46
38038;BME280;23843;51.320;12.340;2023-12-07T23:32:17;100369.69;;;1.25;83.40
38038;BME280;23843;51.320;12.340;2023-12-07T23:34:43;100369.88;;;1.24;82.95
38038;BME280;23843;51.320;12.340;2023-12-07T23:37:08;100359.97;;;1.23;82.97
38038;BME280;23843;51.320;12.340;2023-12-07T23:39:35;100350.03;;;1.22;83.27
38038;BME280;23843;51.320;12.340;2023-12-07T23:42:01;100348.34;;;1.21;82.90
38038;BME280;23843;51.320;12.340;2023-12-07T23:44:30;100350.03;;;1.22;82.65
38038;BME280;23843;51.320;12.340;2023-12-07T23:46:55;100342.88;;;1.21;82.89
38038;BME280;23843;51.320;12.340;2023-12-07T23:49:21;100338.59;;;1.18;82.99
38038;BME280;23843;51.320;12.340;2023-12-07T23:51:46;100332.94;;;1.20;82.97
38038;BME280;23843;51.320;12.340;2023-12-07T23:54:11;100322.16;;;1.18;82.91
38038;BME280;23843;51.320;12.340;2023-12-07T23:56:37;100322.00;;;1.20;82.54
38038;BME280;23843;51.320;12.340;2023-12-07T23:59:02;100315.84;;;1.17;82.21
